sensor_id;sensor_type;location;lat;lon;timestamp;P1;durP1;ratioP1;P2;durP2;ratioP2
44358;SDS011;30077;52.474;13.326;2023-08-06T00:03:08;15.68;;;10.93;;
44358;SDS011;30077;52.474;13.326;2023-08-06T00:08:09;12.52;;;10.80;;
44358;SDS011;30077;52.474;13.326;2023-08-06T00:13:10;12.82;;;10.93;;
44358;SDS011;30077;52.474;13.326;2023-08-06T00:18:10;14.57;;;10.88;;
44358;SDS011;30077;52.474;13.326;2023-08-06T00:23:11;12.63;;;11.38;;
44358;SDS011;30077;52.474;13.326;2023-08-06T00:28:11;12.50;;;11.15;;
44358;SDS011;30077;52.474;13.326;2023-08-06T00:33:12;13.77;;;11.25;;
44358;SDS011;30077;52.474;13.326;2023-08-06T00:38:13;13.18;;;11.15;;
44358;SDS011;30077;52.474;13.326;2023-08-06T00:43:13;14.52;;;11.68;;
44358;SDS011;30077;52.474;13.326;2023-08-06T00:48:14;15.25;;;11.73;;
44358;SDS011;30077;52.474;13.326;2023-08-06T00:53:15;14.13;;;11.13;;
44358;SDS011;30077;52.474;13.326;2023-08-06T00:58:16;12.95;;;10.93;;
44358;SDS011;30077;52.474;13.326;2023-08-06T01:03:17;14.63;;;11.27;;
44358;SDS011;30077;52.474;13.326;2023-08-06T01:13:48;13.45;;;10.60;;
44358;SDS011;30077;52.474;13.326;2023-08-06T01:18:58;11.93;;;10.50;;
44358;SDS011;30077;52.474;13.326;2023-08-06T01:23:59;10.85;;;9.65;;
44358;SDS011;30077;52.474;13.326;2023-08-06T01:29:03;12.10;;;10.40;;
44358;SDS011;30077;52.474;13.326;2023-08-06T01:34:14;12.48;;;11.18;;
44358;SDS011;30077;52.474;13.326;2023-08-06T01:39:19;12.90;;;11.25;;
44358;SDS011;30077;52.474;13.326;2023-08-06T01:44:21;12.50;;;11.20;;
44358;SDS011;30077;52.474;13.326;2023-08-06T01:49:21;13.43;;;12.02;;
44358;SDS011;30077;52.474;13.326;2023-08-06T01:54:22;13.38;;;11.13;;
44358;SDS011;30077;52.474;13.326;2023-08-06T01:59:23;14.27;;;12.88;;
44358;SDS011;30077;52.474;13.326;2023-08-06T02:04:24;19.17;;;12.70;;
44358;SDS011;30077;52.474;13.326;2023-08-06T02:09:25;13.80;;;12.07;;
44358;SDS011;30077;52.474;13.326;2023-08-06T02:14:26;13.05;;;11.70;;
44358;SDS011;30077;52.474;13.326;2023-08-06T02:19:27;16.00;;;14.00;;
44358;SDS011;30077;52.474;13.326;2023-08-06T02:24:28;14.40;;;12.90;;
44358;SDS011;30077;52.474;13.326;2023-08-06T02:29:29;17.23;;;12.48;;
44358;SDS011;30077;52.474;13.326;2023-08-06T02:34:30;12.90;;;11.60;;
44358;SDS011;30077;52.474;13.326;2023-08-06T02:39:30;15.55;;;13.13;;
44358;SDS011;30077;52.474;13.326;2023-08-06T02:44:31;15.07;;;13.07;;
44358;SDS011;30077;52.474;13.326;2023-08-06T02:49:33;15.00;;;13.27;;
44358;SDS011;30077;52.474;13.326;2023-08-06T02:54:34;13.88;;;12.07;;
44358;SDS011;30077;52.474;13.326;2023-08-06T02:59:34;14.23;;;12.52;;
44358;SDS011;30077;52.474;13.326;2023-08-06T03:04:35;13.93;;;12.25;;
44358;SDS011;30077;52.474;13.326;2023-08-06T03:09:36;16.63;;;12.45;;
44358;SDS011;30077;52.474;13.326;2023-08-06T03:14:36;17.15;;;12.38;;
44358;SDS011;30077;52.474;13.326;2023-08-06T03:19:38;13.05;;;11.75;;
44358;SDS011;30077;52.474;13.326;2023-08-06T03:24:39;15.05;;;12.88;;
44358;SDS011;30077;52.474;13.326;2023-08-06T03:29:39;19.00;;;13.02;;
44358;SDS011;30077;52.474;13.326;2023-08-06T03:34:40;13.95;;;12.45;;
44358;SDS011;30077;52.474;13.326;2023-08-06T03:39:41;15.95;;;12.73;;
44358;SDS011;30077;52.474;13.326;2023-08-06T03:44:42;16.23;;;13.10;;
44358;SDS011;30077;52.474;13.326;2023-08-06T03:49:44;13.47;;;11.10;;
44358;SDS011;30077;52.474;13.326;2023-08-06T03:54:44;15.02;;;10.68;;
44358;SDS011;30077;52.474;13.326;2023-08-06T03:59:45;11.90;;;10.00;;
44358;SDS011;30077;52.474;13.326;2023-08-06T04:04:46;11.63;;;10.43;;
44358;SDS011;30077;52.474;13.326;2023-08-06T04:09:53;11.85;;;10.38;;
44358;SDS011;30077;52.474;13.326;2023-08-06T04:15:01;11.40;;;10.20;;
44358;SDS011;30077;52.474;13.326;2023-08-06T04:20:02;11.75;;;9.68;;
44358;SDS011;30077;52.474;13.326;2023-08-06T04:25:04;12.73;;;9.45;;
44358;SDS011;30077;52.474;13.326;2023-08-06T04:30:05;11.45;;;10.27;;
44358;SDS011;30077;52.474;13.326;2023-08-06T04:35:06;11.15;;;9.95;;
44358;SDS011;30077;52.474;13.326;2023-08-06T04:40:08;11.48;;;9.60;;
44358;SDS011;30077;52.474;13.326;2023-08-06T04:45:15;14.35;;;9.77;;
44358;SDS011;30077;52.474;13.326;2023-08-06T04:50:16;11.70;;;10.50;;
44358;SDS011;30077;52.474;13.326;2023-08-06T04:55:17;11.02;;;9.68;;
44358;SDS011;30077;52.474;13.326;2023-08-06T05:00:17;11.75;;;9.38;;
44358;SDS011;30077;52.474;13.326;2023-08-06T05:05:18;10.70;;;9.10;;
44358;SDS011;30077;52.474;13.326;2023-08-06T05:10:19;9.35;;;8.32;;
44358;SDS011;30077;52.474;13.326;2023-08-06T05:15:19;10.48;;;8.38;;
44358;SDS011;30077;52.474;13.326;2023-08-06T05:20:20;10.90;;;9.00;;
44358;SDS011;30077;52.474;13.326;2023-08-06T05:25:20;11.85;;;8.57;;
44358;SDS011;30077;52.474;13.326;2023-08-06T05:30:21;10.48;;;8.38;;
44358;SDS011;30077;52.474;13.326;2023-08-06T05:35:22;12.75;;;9.35;;
44358;SDS011;30077;52.474;13.326;2023-08-06T05:40:22;10.68;;;9.43;;
44358;SDS011;30077;52.474;13.326;2023-08-06T05:45:25;12.30;;;9.82;;
44358;SDS011;30077;52.474;13.326;2023-08-06T05:50:25;12.23;;;10.57;;
44358;SDS011;30077;52.474;13.326;2023-08-06T05:55:26;11.45;;;9.80;;
44358;SDS011;30077;52.474;13.326;2023-08-06T06:00:27;11.45;;;9.05;;
44358;SDS011;30077;52.474;13.326;2023-08-06T06:05:27;10.13;;;8.07;;
44358;SDS011;30077;52.474;13.326;2023-08-06T06:10:28;11.20;;;9.90;;
44358;SDS011;30077;52.474;13.326;2023-08-06T06:15:30;10.02;;;9.02;;
44358;SDS011;30077;52.474;13.326;2023-08-06T06:20:32;10.40;;;8.48;;
44358;SDS011;30077;52.474;13.326;2023-08-06T06:25:33;10.20;;;8.63;;
44358;SDS011;30077;52.474;13.326;2023-08-06T06:30:34;12.70;;;8.88;;
44358;SDS011;30077;52.474;13.326;2023-08-06T06:35:36;10.10;;;9.10;;
44358;SDS011;30077;52.474;13.326;2023-08-06T06:40:37;9.02;;;8.13;;
44358;SDS011;30077;52.474;13.326;2023-08-06T06:45:37;9.07;;;6.85;;
44358;SDS011;30077;52.474;13.326;2023-08-06T06:50:38;9.63;;;7.88;;
44358;SDS011;30077;52.474;13.326;2023-08-06T06:55:39;8.65;;;7.38;;
44358;SDS011;30077;52.474;13.326;2023-08-06T07:00:39;8.52;;;7.72;;
44358;SDS011;30077;52.474;13.326;2023-08-06T07:05:40;8.23;;;7.07;;
44358;SDS011;30077;52.474;13.326;2023-08-06T07:10:42;8.50;;;6.50;;
44358;SDS011;30077;52.474;13.326;2023-08-06T07:15:43;7.80;;;6.82;;
44358;SDS011;30077;52.474;13.326;2023-08-06T07:20:47;8.63;;;7.50;;
44358;SDS011;30077;52.474;13.326;2023-08-06T07:25:51;8.77;;;7.15;;
44358;SDS011;30077;52.474;13.326;2023-08-06T07:30:52;7.70;;;6.93;;
44358;SDS011;30077;52.474;13.326;2023-08-06T07:35:52;6.97;;;6.03;;
44358;SDS011;30077;52.474;13.326;2023-08-06T07:40:53;8.02;;;6.55;;
44358;SDS011;30077;52.474;13.326;2023-08-06T07:45:54;7.70;;;6.13;;
44358;SDS011;30077;52.474;13.326;2023-08-06T07:50:59;7.60;;;6.90;;
44358;SDS011;30077;52.474;13.326;2023-08-06T07:55:59;10.30;;;8.03;;
44358;SDS011;30077;52.474;13.326;2023-08-06T08:01:02;10.70;;;8.15;;
44358;SDS011;30077;52.474;13.326;2023-08-06T08:06:02;10.15;;;7.90;;
44358;SDS011;30077;52.474;13.326;2023-08-06T08:11:03;8.10;;;7.28;;
44358;SDS011;30077;52.474;13.326;2023-08-06T08:16:04;10.52;;;9.48;;
44358;SDS011;30077;52.474;13.326;2023-08-06T08:21:05;12.45;;;10.68;;
44358;SDS011;30077;52.474;13.326;2023-08-06T08:26:06;15.77;;;11.07;;
44358;SDS011;30077;52.474;13.326;2023-08-06T08:31:08;10.50;;;9.00;;
44358;SDS011;30077;52.474;13.326;2023-08-06T08:36:12;10.35;;;9.38;;
44358;SDS011;30077;52.474;13.326;2023-08-06T08:41:12;11.33;;;9.90;;
44358;SDS011;30077;52.474;13.326;2023-08-06T08:46:15;13.88;;;10.95;;
44358;SDS011;30077;52.474;13.326;2023-08-06T08:51:18;10.23;;;8.43;;
44358;SDS011;30077;52.474;13.326;2023-08-06T08:56:20;12.07;;;10.68;;
44358;SDS011;30077;52.474;13.326;2023-08-06T09:01:24;9.45;;;8.55;;
44358;SDS011;30077;52.474;13.326;2023-08-06T09:06:25;10.68;;;9.65;;
44358;SDS011;30077;52.474;13.326;2023-08-06T09:11:27;15.27;;;12.90;;
44358;SDS011;30077;52.474;13.326;2023-08-06T09:16:38;11.80;;;10.60;;
44358;SDS011;30077;52.474;13.326;2023-08-06T09:21:39;11.32;;;9.95;;
44358;SDS011;30077;52.474;13.326;2023-08-06T09:26:40;11.02;;;9.88;;
44358;SDS011;30077;52.474;13.326;2023-08-06T09:31:43;11.20;;;9.82;;
44358;SDS011;30077;52.474;13.326;2023-08-06T09:36:47;10.93;;;8.77;;
44358;SDS011;30077;52.474;13.326;2023-08-06T09:41:55;10.50;;;9.15;;
44358;SDS011;30077;52.474;13.326;2023-08-06T09:46:59;10.43;;;9.35;;
44358;SDS011;30077;52.474;13.326;2023-08-06T09:52:03;11.13;;;9.75;;
44358;SDS011;30077;52.474;13.326;2023-08-06T09:57:05;12.30;;;10.18;;
44358;SDS011;30077;52.474;13.326;2023-08-06T10:02:08;11.25;;;10.05;;
44358;SDS011;30077;52.474;13.326;2023-08-06T10:07:13;10.88;;;9.88;;
44358;SDS011;30077;52.474;13.326;2023-08-06T10:12:14;11.57;;;10.15;;
44358;SDS011;30077;52.474;13.326;2023-08-06T10:17:18;11.38;;;10.05;;
44358;SDS011;30077;52.474;13.326;2023-08-06T10:22:20;12.88;;;11.32;;
44358;SDS011;30077;52.474;13.326;2023-08-06T10:27:31;11.93;;;10.73;;
44358;SDS011;30077;52.474;13.326;2023-08-06T10:32:47;12.70;;;11.40;;
44358;SDS011;30077;52.474;13.326;2023-08-06T10:37:50;11.73;;;10.52;;
44358;SDS011;30077;52.474;13.326;2023-08-06T10:42:51;10.98;;;9.75;;
44358;SDS011;30077;52.474;13.326;2023-08-06T10:47:53;11.57;;;10.48;;
44358;SDS011;30077;52.474;13.326;2023-08-06T10:52:54;12.05;;;10.85;;
44358;SDS011;30077;52.474;13.326;2023-08-06T10:57:55;11.35;;;10.25;;
44358;SDS011;30077;52.474;13.326;2023-08-06T11:02:57;15.73;;;12.30;;
44358;SDS011;30077;52.474;13.326;2023-08-06T11:07:58;14.27;;;12.13;;
44358;SDS011;30077;52.474;13.326;2023-08-06T11:13:03;17.42;;;13.55;;
44358;SDS011;30077;52.474;13.326;2023-08-06T11:18:04;20.48;;;15.63;;
44358;SDS011;30077;52.474;13.326;2023-08-06T11:23:06;25.93;;;20.17;;
44358;SDS011;30077;52.474;13.326;2023-08-06T11:28:11;23.38;;;18.80;;
44358;SDS011;30077;52.474;13.326;2023-08-06T11:33:12;65.60;;;22.35;;
44358;SDS011;30077;52.474;13.326;2023-08-06T11:38:13;25.45;;;19.60;;
44358;SDS011;30077;52.474;13.326;2023-08-06T11:43:14;35.00;;;22.98;;
44358;SDS011;30077;52.474;13.326;2023-08-06T11:48:15;29.38;;;23.35;;
44358;SDS011;30077;52.474;13.326;2023-08-06T11:53:16;33.17;;;23.73;;
44358;SDS011;30077;52.474;13.326;2023-08-06T11:58:17;41.95;;;27.73;;
44358;SDS011;30077;52.474;13.326;2023-08-06T12:03:18;34.40;;;25.35;;
44358;SDS011;30077;52.474;13.326;2023-08-06T12:08:20;28.02;;;22.30;;
44358;SDS011;30077;52.474;13.326;2023-08-06T12:13:20;26.52;;;19.80;;
44358;SDS011;30077;52.474;13.326;2023-08-06T12:18:21;21.00;;;13.38;;
44358;SDS011;30077;52.474;13.326;2023-08-06T12:23:22;20.08;;;15.18;;
44358;SDS011;30077;52.474;13.326;2023-08-06T12:28:23;32.78;;;17.38;;
44358;SDS011;30077;52.474;13.326;2023-08-06T12:33:24;18.88;;;15.48;;
44358;SDS011;30077;52.474;13.326;2023-08-06T12:38:25;19.80;;;14.60;;
44358;SDS011;30077;52.474;13.326;2023-08-06T12:43:26;22.02;;;16.08;;
44358;SDS011;30077;52.474;13.326;2023-08-06T12:48:26;21.23;;;15.77;;
44358;SDS011;30077;52.474;13.326;2023-08-06T12:53:27;22.02;;;16.63;;
44358;SDS011;30077;52.474;13.326;2023-08-06T12:58:28;19.92;;;15.73;;
44358;SDS011;30077;52.474;13.326;2023-08-06T13:03:31;19.88;;;14.98;;
44358;SDS011;30077;52.474;13.326;2023-08-06T13:08:32;19.73;;;14.52;;
44358;SDS011;30077;52.474;13.326;2023-08-06T13:13:32;20.55;;;13.85;;
44358;SDS011;30077;52.474;13.326;2023-08-06T13:18:33;15.95;;;12.57;;
44358;SDS011;30077;52.474;13.326;2023-08-06T13:23:34;15.63;;;12.30;;
44358;SDS011;30077;52.474;13.326;2023-08-06T13:28:34;13.80;;;11.18;;
44358;SDS011;30077;52.474;13.326;2023-08-06T13:33:35;16.45;;;11.55;;
44358;SDS011;30077;52.474;13.326;2023-08-06T13:38:36;16.17;;;12.23;;
44358;SDS011;30077;52.474;13.326;2023-08-06T13:43:36;13.88;;;11.40;;
44358;SDS011;30077;52.474;13.326;2023-08-06T13:48:37;14.43;;;10.52;;
44358;SDS011;30077;52.474;13.326;2023-08-06T13:53:38;18.10;;;13.05;;
44358;SDS011;30077;52.474;13.326;2023-08-06T13:58:40;19.13;;;14.15;;
44358;SDS011;30077;52.474;13.326;2023-08-06T14:03:40;20.15;;;14.43;;
44358;SDS011;30077;52.474;13.326;2023-08-06T14:08:41;22.25;;;15.00;;
44358;SDS011;30077;52.474;13.326;2023-08-06T14:13:41;25.13;;;16.98;;
44358;SDS011;30077;52.474;13.326;2023-08-06T14:18:42;26.67;;;16.88;;
44358;SDS011;30077;52.474;13.326;2023-08-06T14:23:43;25.05;;;17.55;;
44358;SDS011;30077;52.474;13.326;2023-08-06T14:28:44;20.27;;;14.85;;
44358;SDS011;30077;52.474;13.326;2023-08-06T14:33:44;20.25;;;14.32;;
44358;SDS011;30077;52.474;13.326;2023-08-06T14:38:45;20.67;;;15.20;;
44358;SDS011;30077;52.474;13.326;2023-08-06T14:43:46;13.57;;;10.60;;
44358;SDS011;30077;52.474;13.326;2023-08-06T14:48:46;15.82;;;11.70;;
44358;SDS011;30077;52.474;13.326;2023-08-06T14:53:47;18.65;;;14.52;;
44358;SDS011;30077;52.474;13.326;2023-08-06T14:58:48;11.35;;;8.65;;
44358;SDS011;30077;52.474;13.326;2023-08-06T15:03:48;13.57;;;9.48;;
44358;SDS011;30077;52.474;13.326;2023-08-06T15:08:49;13.32;;;9.13;;
44358;SDS011;30077;52.474;13.326;2023-08-06T15:13:50;12.88;;;10.05;;
44358;SDS011;30077;52.474;13.326;2023-08-06T15:18:51;13.55;;;9.10;;
44358;SDS011;30077;52.474;13.326;2023-08-06T15:23:54;10.45;;;7.80;;
44358;SDS011;30077;52.474;13.326;2023-08-06T15:28:54;7.60;;;6.70;;
44358;SDS011;30077;52.474;13.326;2023-08-06T15:33:56;11.90;;;8.35;;
44358;SDS011;30077;52.474;13.326;2023-08-06T15:38:57;14.77;;;8.73;;
44358;SDS011;30077;52.474;13.326;2023-08-06T15:43:58;13.70;;;8.05;;
44358;SDS011;30077;52.474;13.326;2023-08-06T15:48:58;11.40;;;8.48;;
44358;SDS011;30077;52.474;13.326;2023-08-06T15:53:59;8.50;;;6.82;;
44358;SDS011;30077;52.474;13.326;2023-08-06T16:04:28;9.07;;;6.45;;
44358;SDS011;30077;52.474;13.326;2023-08-06T16:09:30;8.75;;;6.22;;
44358;SDS011;30077;52.474;13.326;2023-08-06T16:14:30;7.68;;;6.30;;
44358;SDS011;30077;52.474;13.326;2023-08-06T16:19:31;10.48;;;6.60;;
44358;SDS011;30077;52.474;13.326;2023-08-06T16:24:33;9.60;;;7.65;;
44358;SDS011;30077;52.474;13.326;2023-08-06T16:29:36;10.82;;;7.65;;
44358;SDS011;30077;52.474;13.326;2023-08-06T16:34:37;10.65;;;7.13;;
44358;SDS011;30077;52.474;13.326;2023-08-06T16:39:38;10.73;;;7.20;;
44358;SDS011;30077;52.474;13.326;2023-08-06T16:44:39;12.95;;;7.75;;
44358;SDS011;30077;52.474;13.326;2023-08-06T16:49:40;12.70;;;7.65;;
44358;SDS011;30077;52.474;13.326;2023-08-06T16:54:41;8.45;;;5.70;;
44358;SDS011;30077;52.474;13.326;2023-08-06T16:59:41;10.90;;;6.78;;
44358;SDS011;30077;52.474;13.326;2023-08-06T17:04:43;13.90;;;7.25;;
44358;SDS011;30077;52.474;13.326;2023-08-06T17:09:45;12.65;;;6.38;;
44358;SDS011;30077;52.474;13.326;2023-08-06T17:14:46;11.68;;;6.50;;
44358;SDS011;30077;52.474;13.326;2023-08-06T17:19:46;9.88;;;6.00;;
44358;SDS011;30077;52.474;13.326;2023-08-06T17:24:47;11.73;;;6.38;;
44358;SDS011;30077;52.474;13.326;2023-08-06T17:29:48;9.32;;;6.93;;
44358;SDS011;30077;52.474;13.326;2023-08-06T17:34:48;11.43;;;7.53;;
44358;SDS011;30077;52.474;13.326;2023-08-06T17:39:49;11.85;;;7.40;;
44358;SDS011;30077;52.474;13.326;2023-08-06T17:44:50;11.90;;;7.15;;
44358;SDS011;30077;52.474;13.326;2023-08-06T17:49:51;7.47;;;6.30;;
44358;SDS011;30077;52.474;13.326;2023-08-06T17:54:52;9.88;;;6.63;;
44358;SDS011;30077;52.474;13.326;2023-08-06T17:59:54;10.23;;;6.70;;
44358;SDS011;30077;52.474;13.326;2023-08-06T18:04:54;11.90;;;6.03;;
44358;SDS011;30077;52.474;13.326;2023-08-06T18:09:56;11.90;;;5.70;;
44358;SDS011;30077;52.474;13.326;2023-08-06T18:14:57;14.67;;;10.57;;
44358;SDS011;30077;52.474;13.326;2023-08-06T18:19:59;14.95;;;9.50;;
44358;SDS011;30077;52.474;13.326;2023-08-06T18:25:00;12.43;;;8.00;;
44358;SDS011;30077;52.474;13.326;2023-08-06T18:30:04;11.35;;;7.18;;
44358;SDS011;30077;52.474;13.326;2023-08-06T18:35:06;14.93;;;9.93;;
44358;SDS011;30077;52.474;13.326;2023-08-06T18:40:08;12.05;;;8.07;;
44358;SDS011;30077;52.474;13.326;2023-08-06T18:45:10;17.73;;;9.07;;
44358;SDS011;30077;52.474;13.326;2023-08-06T18:50:12;11.80;;;8.55;;
44358;SDS011;30077;52.474;13.326;2023-08-06T18:55:13;12.43;;;9.05;;
44358;SDS011;30077;52.474;13.326;2023-08-06T19:00:14;14.52;;;9.35;;
44358;SDS011;30077;52.474;13.326;2023-08-06T19:05:15;18.27;;;9.93;;
44358;SDS011;30077;52.474;13.326;2023-08-06T19:10:15;13.98;;;8.57;;
44358;SDS011;30077;52.474;13.326;2023-08-06T19:15:16;19.75;;;10.43;;
44358;SDS011;30077;52.474;13.326;2023-08-06T19:20:17;11.15;;;7.85;;
44358;SDS011;30077;52.474;13.326;2023-08-06T19:25:18;16.70;;;10.20;;
44358;SDS011;30077;52.474;13.326;2023-08-06T19:30:20;16.02;;;10.75;;
44358;SDS011;30077;52.474;13.326;2023-08-06T19:35:20;27.35;;;15.85;;
44358;SDS011;30077;52.474;13.326;2023-08-06T19:40:21;30.67;;;16.98;;
44358;SDS011;30077;52.474;13.326;2023-08-06T19:45:22;14.10;;;8.32;;
44358;SDS011;30077;52.474;13.326;2023-08-06T19:50:22;11.55;;;7.85;;
44358;SDS011;30077;52.474;13.326;2023-08-06T19:55:23;13.43;;;8.70;;
44358;SDS011;30077;52.474;13.326;2023-08-06T20:00:24;14.88;;;10.23;;
44358;SDS011;30077;52.474;13.326;2023-08-06T20:05:24;15.10;;;10.63;;
44358;SDS011;30077;52.474;13.326;2023-08-06T20:10:26;15.80;;;9.90;;
44358;SDS011;30077;52.474;13.326;2023-08-06T20:15:28;12.32;;;8.93;;
44358;SDS011;30077;52.474;13.326;2023-08-06T20:20:29;11.60;;;8.77;;
44358;SDS011;30077;52.474;13.326;2023-08-06T20:25:34;13.55;;;6.68;;
44358;SDS011;30077;52.474;13.326;2023-08-06T20:30:35;8.70;;;5.97;;
44358;SDS011;30077;52.474;13.326;2023-08-06T20:35:39;12.77;;;5.93;;
44358;SDS011;30077;52.474;13.326;2023-08-06T20:40:40;8.35;;;5.20;;
44358;SDS011;30077;52.474;13.326;2023-08-06T20:45:50;8.45;;;5.43;;
44358;SDS011;30077;52.474;13.326;2023-08-06T20:50:55;8.10;;;5.13;;
44358;SDS011;30077;52.474;13.326;2023-08-06T20:56:00;8.43;;;5.45;;
44358;SDS011;30077;52.474;13.326;2023-08-06T21:01:02;6.55;;;5.00;;
44358;SDS011;30077;52.474;13.326;2023-08-06T21:06:03;7.70;;;5.68;;
44358;SDS011;30077;52.474;13.326;2023-08-06T21:11:05;7.82;;;5.28;;
44358;SDS011;30077;52.474;13.326;2023-08-06T21:16:08;7.50;;;5.35;;
44358;SDS011;30077;52.474;13.326;2023-08-06T21:21:08;9.52;;;5.40;;
44358;SDS011;30077;52.474;13.326;2023-08-06T21:26:09;9.13;;;5.53;;
44358;SDS011;30077;52.474;13.326;2023-08-06T21:31:11;8.23;;;4.88;;
44358;SDS011;30077;52.474;13.326;2023-08-06T21:36:13;8.35;;;5.28;;
44358;SDS011;30077;52.474;13.326;2023-08-06T21:41:15;8.10;;;5.32;;
44358;SDS011;30077;52.474;13.326;2023-08-06T21:46:17;7.28;;;4.63;;
44358;SDS011;30077;52.474;13.326;2023-08-06T21:51:20;8.95;;;5.22;;
44358;SDS011;30077;52.474;13.326;2023-08-06T21:56:21;7.65;;;4.45;;
44358;SDS011;30077;52.474;13.326;2023-08-06T22:01:21;6.47;;;4.45;;
44358;SDS011;30077;52.474;13.326;2023-08-06T22:06:22;9.18;;;5.32;;
44358;SDS011;30077;52.474;13.326;2023-08-06T22:11:23;7.90;;;5.13;;
44358;SDS011;30077;52.474;13.326;2023-08-06T22:16:23;18.58;;;8.13;;
44358;SDS011;30077;52.474;13.326;2023-08-06T22:21:25;8.30;;;5.38;;
44358;SDS011;30077;52.474;13.326;2023-08-06T22:26:26;9.10;;;4.22;;
44358;SDS011;30077;52.474;13.326;2023-08-06T22:31:27;6.65;;;4.28;;
44358;SDS011;30077;52.474;13.326;2023-08-06T22:36:28;11.48;;;6.95;;
44358;SDS011;30077;52.474;13.326;2023-08-06T22:41:28;10.60;;;4.82;;
44358;SDS011;30077;52.474;13.326;2023-08-06T22:46:29;6.88;;;4.32;;
44358;SDS011;30077;52.474;13.326;2023-08-06T22:51:30;6.50;;;4.13;;
44358;SDS011;30077;52.474;13.326;2023-08-06T22:56:30;5.15;;;3.72;;
44358;SDS011;30077;52.474;13.326;2023-08-06T23:01:32;5.93;;;4.15;;
44358;SDS011;30077;52.474;13.326;2023-08-06T23:06:33;16.88;;;8.50;;
44358;SDS011;30077;52.474;13.326;2023-08-06T23:11:34;17.25;;;7.72;;
44358;SDS011;30077;52.474;13.326;2023-08-06T23:16:34;11.80;;;6.00;;
44358;SDS011;30077;52.474;13.326;2023-08-06T23:21:35;5.45;;;4.22;;
44358;SDS011;30077;52.474;13.326;2023-08-06T23:26:37;7.20;;;4.20;;
44358;SDS011;30077;52.474;13.326;2023-08-06T23:31:38;6.15;;;3.78;;
44358;SDS011;30077;52.474;13.326;2023-08-06T23:36:42;8.30;;;4.50;;
44358;SDS011;30077;52.474;13.326;2023-08-06T23:41:43;5.70;;;4.03;;
44358;SDS011;30077;52.474;13.326;2023-08-06T23:46:43;6.38;;;4.63;;
44358;SDS011;30077;52.474;13.326;2023-08-06T23:51:45;7.43;;;4.50;;
44358;SDS011;30077;52.474;13.326;2023-08-06T23:56:46;5.25;;;4.50;;
